createdAt,value
2022-12-18T00:00:48.197Z,49.80
2022-12-18T00:03:18.691Z,50.01
2022-12-18T00:05:29.564Z,49.97
2022-12-18T00:07:40.589Z,50.15
2022-12-18T00:09:50.597Z,50.09
2022-12-18T00:14:25.913Z,50.40
2022-12-18T00:16:36.850Z,50.62
2022-12-18T00:18:46.760Z,50.56
2022-12-18T00:20:56.837Z,50.48
2022-12-18T00:23:07.441Z,50.53
2022-12-18T00:25:17.748Z,50.40
2022-12-18T00:27:27.622Z,50.50
2022-12-18T00:29:37.752Z,50.51
2022-12-18T00:31:48.716Z,50.87
2022-12-18T00:34:00.104Z,50.87
2022-12-18T00:36:12.613Z,50.92
2022-12-18T00:38:22.140Z,51.08
2022-12-18T00:40:33.002Z,51.12
2022-12-18T00:43:00.875Z,51.16
2022-12-18T00:45:13.177Z,51.18
2022-12-18T00:47:23.166Z,51.48
2022-12-18T00:49:33.562Z,51.35
2022-12-18T00:51:43.347Z,51.46
2022-12-18T00:53:55.234Z,51.52
2022-12-18T00:56:05.220Z,51.65
2022-12-18T00:58:15.716Z,51.57
2022-12-18T01:00:26.408Z,51.64
2022-12-18T01:02:36.585Z,51.89
2022-12-18T01:04:46.676Z,51.91
2022-12-18T01:06:56.422Z,51.96
2022-12-18T01:09:06.024Z,52.10
2022-12-18T01:11:22.471Z,52.06
2022-12-18T01:13:32.722Z,52.19
2022-12-18T01:15:43.014Z,52.27
2022-12-18T01:17:56.704Z,52.59
2022-12-18T01:20:06.848Z,52.69
2022-12-18T01:22:17.521Z,52.67
2022-12-18T01:24:27.676Z,52.97
2022-12-18T01:26:37.256Z,52.95
2022-12-18T01:28:47.463Z,52.98
2022-12-18T01:30:57.030Z,53.06
2022-12-18T01:33:09.080Z,53.04
2022-12-18T01:35:19.066Z,53.30
2022-12-18T01:37:29.640Z,53.41
2022-12-18T01:39:39.528Z,53.43
2022-12-18T01:42:05.486Z,53.47
2022-12-18T01:44:45.026Z,53.34
2022-12-18T01:46:55.065Z,53.81
2022-12-18T01:49:05.720Z,53.87
2022-12-18T01:51:16.601Z,54.01
2022-12-18T01:53:27.761Z,54.06
2022-12-18T01:55:44.176Z,53.99
2022-12-18T01:57:55.276Z,54.18
2022-12-18T02:00:12.173Z,54.26
2022-12-18T02:02:25.474Z,54.24
2022-12-18T02:04:35.779Z,54.49
2022-12-18T02:06:46.586Z,54.49
2022-12-18T02:09:11.109Z,54.60
2022-12-18T02:11:29.051Z,54.52
2022-12-18T02:13:49.934Z,54.76
2022-12-18T02:16:09.001Z,54.73
2022-12-18T02:18:24.177Z,54.80
2022-12-18T02:20:39.182Z,54.95
2022-12-18T02:23:00.772Z,54.90
2022-12-18T02:25:24.260Z,55.00
2022-12-18T02:27:39.450Z,55.21
2022-12-18T02:29:58.331Z,55.11
2022-12-18T02:32:16.820Z,55.23
2022-12-18T02:34:30.007Z,55.54
2022-12-18T02:36:43.531Z,55.71
2022-12-18T02:38:54.801Z,55.68
2022-12-18T02:41:04.961Z,55.50
2022-12-18T02:43:17.389Z,55.88
2022-12-18T02:45:27.967Z,56.13
2022-12-18T02:47:40.205Z,56.40
2022-12-18T02:50:00.832Z,56.38
2022-12-18T02:52:21.461Z,56.34
2022-12-18T02:54:46.027Z,56.62
2022-12-18T02:56:58.795Z,56.44
2022-12-18T02:59:16.477Z,57.01
2022-12-18T03:01:36.437Z,57.05
2022-12-18T03:03:50.597Z,56.86
2022-12-18T03:06:03.119Z,57.01
2022-12-18T03:08:17.447Z,57.14
2022-12-18T03:10:31.693Z,57.03
2022-12-18T03:12:47.468Z,57.01
2022-12-18T03:15:02.751Z,56.94
2022-12-18T03:17:18.629Z,57.12
2022-12-18T03:19:32.305Z,57.13
2022-12-18T03:21:48.410Z,57.08
2022-12-18T03:24:00.058Z,57.30
2022-12-18T03:26:13.310Z,57.35
2022-12-18T03:28:25.580Z,57.17
2022-12-18T03:30:43.514Z,57.28
2022-12-18T03:33:00.199Z,57.39
2022-12-18T03:35:14.065Z,57.38
2022-12-18T03:37:24.133Z,57.24
2022-12-18T03:39:37.379Z,57.31
2022-12-18T03:41:52.636Z,57.52
2022-12-18T03:44:18.917Z,57.71
2022-12-18T03:46:35.426Z,57.42
2022-12-18T03:48:51.694Z,57.82
2022-12-18T03:51:08.412Z,57.93
2022-12-18T03:53:29.663Z,57.86
2022-12-18T03:55:40.647Z,57.98
2022-12-18T03:57:52.549Z,57.94
2022-12-18T04:00:07.080Z,57.86
2022-12-18T04:02:26.604Z,58.24
2022-12-18T04:04:40.977Z,58.33
2022-12-18T04:06:53.222Z,58.53
2022-12-18T04:09:01.501Z,58.52
2022-12-18T04:11:13.050Z,58.64
2022-12-18T04:13:30.979Z,58.76
2022-12-18T04:15:43.638Z,59.18
2022-12-18T04:17:56.277Z,59.03
2022-12-18T04:20:07.415Z,59.32
2022-12-18T04:22:19.188Z,59.83
2022-12-18T04:24:31.200Z,60.18
2022-12-18T04:26:53.101Z,59.85
2022-12-18T04:29:09.324Z,60.57
2022-12-18T04:31:19.287Z,60.56
2022-12-18T04:33:30.412Z,60.38
2022-12-18T04:35:41.004Z,60.84
2022-12-18T04:37:50.834Z,60.86
2022-12-18T04:40:00.770Z,60.88
2022-12-18T04:42:16.961Z,60.59
2022-12-18T04:44:26.707Z,60.80
2022-12-18T04:46:36.517Z,60.60
2022-12-18T04:48:48.136Z,60.74
2022-12-18T04:50:58.100Z,60.87
2022-12-18T04:53:07.909Z,60.85
2022-12-18T04:55:18.161Z,60.66
2022-12-18T04:57:27.863Z,60.59
2022-12-18T04:59:37.483Z,60.92
2022-12-18T05:01:47.372Z,60.89
2022-12-18T05:03:57.672Z,61.01
2022-12-18T05:06:07.919Z,60.83
2022-12-18T05:08:17.875Z,60.94
2022-12-18T05:10:27.850Z,60.99
2022-12-18T05:13:01.423Z,60.77
2022-12-18T05:15:12.818Z,60.94
2022-12-18T05:17:22.634Z,60.97
2022-12-18T05:19:32.784Z,61.00
2022-12-18T05:21:42.356Z,61.09
2022-12-18T05:23:52.553Z,61.01
2022-12-18T05:26:05.470Z,60.86
2022-12-18T05:28:15.066Z,60.75
2022-12-18T05:30:25.016Z,61.11
2022-12-18T05:32:34.541Z,61.04
2022-12-18T05:34:44.419Z,60.73
2022-12-18T05:36:53.981Z,61.16
2022-12-18T05:39:03.540Z,61.12
2022-12-18T05:41:16.588Z,60.92
2022-12-18T05:43:28.251Z,61.19
2022-12-18T05:45:39.374Z,61.44
2022-12-18T05:47:49.054Z,61.45
2022-12-18T05:49:58.597Z,61.36
2022-12-18T05:52:08.589Z,61.51
2022-12-18T05:54:18.388Z,61.38
2022-12-18T05:56:28.128Z,61.41
2022-12-18T05:58:38.086Z,61.45
2022-12-18T06:00:48.872Z,61.17
2022-12-18T06:02:58.560Z,61.58
2022-12-18T06:05:10.413Z,61.62
2022-12-18T06:07:20.435Z,61.53
2022-12-18T06:09:30.201Z,61.80
2022-12-18T06:11:40.251Z,61.70
2022-12-18T06:13:56.316Z,61.68
2022-12-18T06:16:10.035Z,61.77
2022-12-18T06:18:19.885Z,61.82
2022-12-18T06:20:35.057Z,61.76
2022-12-18T06:22:44.996Z,61.84
2022-12-18T06:24:54.849Z,62.10
2022-12-18T06:27:05.006Z,62.01
2022-12-18T06:29:14.882Z,62.20
2022-12-18T06:31:24.649Z,62.20
2022-12-18T06:33:34.892Z,62.45
2022-12-18T06:35:44.896Z,62.38
2022-12-18T06:37:55.191Z,62.65
2022-12-18T06:40:04.824Z,62.86
2022-12-18T06:42:14.644Z,62.86
2022-12-18T06:44:25.001Z,63.28
2022-12-18T06:46:35.688Z,63.12
2022-12-18T06:48:45.315Z,63.32
2022-12-18T06:50:54.914Z,63.44
2022-12-18T06:53:04.608Z,63.61
2022-12-18T06:55:15.139Z,63.81
2022-12-18T06:57:24.774Z,63.72
2022-12-18T06:59:35.299Z,63.58
2022-12-18T07:01:45.263Z,63.70
2022-12-18T07:03:59.339Z,63.77
2022-12-18T07:06:15.974Z,63.64
2022-12-18T07:08:26.076Z,63.90
2022-12-18T07:10:35.856Z,63.99
2022-12-18T07:12:45.804Z,64.09
2022-12-18T07:14:56.804Z,63.92
2022-12-18T07:17:06.678Z,64.31
2022-12-18T07:19:16.629Z,64.23
2022-12-18T07:21:27.850Z,64.71
2022-12-18T07:23:39.859Z,64.75
2022-12-18T07:25:50.257Z,65.03
2022-12-18T07:28:01.226Z,65.21
2022-12-18T07:30:13.924Z,65.41
2022-12-18T07:32:23.891Z,65.48
2022-12-18T07:34:33.849Z,65.48
2022-12-18T07:36:43.912Z,65.58
2022-12-18T07:38:54.588Z,65.60
2022-12-18T07:41:08.816Z,65.85
2022-12-18T07:43:18.858Z,66.00
2022-12-18T07:45:29.287Z,66.07
2022-12-18T07:47:42.578Z,66.49
2022-12-18T07:49:52.509Z,66.53
2022-12-18T07:52:03.128Z,66.65
2022-12-18T07:54:13.047Z,66.73
2022-12-18T07:56:28.070Z,66.56
2022-12-18T07:58:38.923Z,66.66
2022-12-18T08:00:48.541Z,67.12
2022-12-18T08:02:58.541Z,66.82
2022-12-18T08:05:09.160Z,67.14
2022-12-18T08:07:19.299Z,67.06
2022-12-18T08:09:29.581Z,67.03
2022-12-18T08:11:39.422Z,67.18
2022-12-18T08:13:49.467Z,67.16
2022-12-18T08:16:04.496Z,66.89
2022-12-18T08:18:14.557Z,67.03
2022-12-18T08:20:24.693Z,67.03
2022-12-18T08:22:44.410Z,67.39
2022-12-18T08:24:54.266Z,67.39
2022-12-18T08:27:28.248Z,67.46
2022-12-18T08:29:35.138Z,67.36
2022-12-18T08:31:45.256Z,67.57
2022-12-18T08:33:55.991Z,67.36
2022-12-18T08:36:08.472Z,67.56
2022-12-18T08:38:18.206Z,67.49
2022-12-18T08:40:28.048Z,67.44
2022-12-18T08:42:56.367Z,67.77
2022-12-18T08:45:06.274Z,67.85
2022-12-18T08:47:16.516Z,67.88
2022-12-18T08:49:26.283Z,68.17
2022-12-18T08:51:36.543Z,67.87
2022-12-18T08:53:47.184Z,68.02
2022-12-18T08:55:56.948Z,67.92
2022-12-18T08:58:06.672Z,68.34
2022-12-18T09:00:18.678Z,68.26
2022-12-18T09:02:28.658Z,68.13
2022-12-18T09:04:38.342Z,68.38
2022-12-18T09:06:48.615Z,68.08
2022-12-18T09:09:00.059Z,68.29
2022-12-18T09:11:17.799Z,68.24
2022-12-18T09:13:27.819Z,68.34
2022-12-18T09:15:42.903Z,68.13
2022-12-18T09:17:54.276Z,68.26
2022-12-18T09:20:03.950Z,68.49
2022-12-18T09:22:13.385Z,68.43
2022-12-18T09:24:22.935Z,68.51
2022-12-18T09:26:32.574Z,68.44
2022-12-18T09:28:42.635Z,68.41
2022-12-18T09:30:53.525Z,68.41
2022-12-18T09:33:03.553Z,68.44
2022-12-18T09:35:14.019Z,68.63
2022-12-18T09:37:23.719Z,68.71
2022-12-18T09:39:33.578Z,68.62
2022-12-18T09:41:48.644Z,68.79
2022-12-18T09:44:03.383Z,68.90
2022-12-18T09:46:14.936Z,68.62
2022-12-18T09:48:29.268Z,68.63
2022-12-18T09:50:42.774Z,68.74
2022-12-18T09:52:56.095Z,68.83
2022-12-18T09:55:09.029Z,68.68
2022-12-18T09:57:22.436Z,68.97
2022-12-18T09:59:38.316Z,68.69
2022-12-18T10:01:48.192Z,69.08
2022-12-18T10:03:59.210Z,68.79
2022-12-18T10:06:16.442Z,68.85
2022-12-18T10:08:33.067Z,68.82
2022-12-18T10:10:49.075Z,68.97
2022-12-18T10:13:05.976Z,69.05
2022-12-18T10:15:26.930Z,69.10
2022-12-18T10:17:44.912Z,68.98
2022-12-18T10:19:59.389Z,69.25
2022-12-18T10:22:21.895Z,69.32
2022-12-18T10:24:42.564Z,69.15
2022-12-18T10:26:52.714Z,69.37
2022-12-18T10:29:05.713Z,69.14
2022-12-18T10:31:22.081Z,69.29
2022-12-18T10:33:35.843Z,69.27
2022-12-18T10:35:46.547Z,69.55
2022-12-18T10:38:26.610Z,69.58
2022-12-18T10:40:50.607Z,69.65
2022-12-18T10:43:14.477Z,69.44
2022-12-18T10:45:23.975Z,69.43
2022-12-18T10:47:33.544Z,69.65
2022-12-18T10:49:50.664Z,69.58
2022-12-18T10:52:17.896Z,69.73
2022-12-18T10:54:30.741Z,69.61
2022-12-18T10:56:40.882Z,69.66
2022-12-18T10:59:00.783Z,69.81
2022-12-18T11:01:14.184Z,69.88
2022-12-18T11:03:38.101Z,69.86
2022-12-18T11:05:48.349Z,69.85
2022-12-18T11:07:58.419Z,69.56
2022-12-18T11:10:18.841Z,69.80
2022-12-18T11:12:30.954Z,69.64
2022-12-18T11:14:47.345Z,70.00
2022-12-18T11:17:28.198Z,70.11
2022-12-18T11:19:37.008Z,70.03
2022-12-18T11:21:47.153Z,70.08
2022-12-18T11:23:58.051Z,70.33
2022-12-18T11:26:08.721Z,70.04
2022-12-18T11:28:37.499Z,70.19
2022-12-18T11:30:47.978Z,70.13
2022-12-18T11:33:02.603Z,70.04
2022-12-18T11:35:24.842Z,70.14
2022-12-18T11:37:35.535Z,70.04
2022-12-18T11:39:50.084Z,70.29
2022-12-18T11:42:14.206Z,70.01
2022-12-18T11:44:29.319Z,70.01
2022-12-18T11:46:46.530Z,70.16
2022-12-18T11:49:01.598Z,70.11
2022-12-18T11:51:17.581Z,70.01
2022-12-18T11:53:29.179Z,69.84
2022-12-18T11:55:46.981Z,69.98
2022-12-18T11:58:07.100Z,70.02
2022-12-18T12:00:20.945Z,69.93
2022-12-18T12:06:24.752Z,70.01
2022-12-18T12:08:43.530Z,70.01
2022-12-18T12:11:04.538Z,69.99
2022-12-18T12:13:27.667Z,70.03
2022-12-18T12:15:48.074Z,69.96
2022-12-18T12:18:09.593Z,69.76
2022-12-18T12:20:30.539Z,70.12
2022-12-18T12:22:52.787Z,70.12
2022-12-18T12:25:29.755Z,70.15
2022-12-18T12:27:49.792Z,70.03
2022-12-18T12:30:10.303Z,70.03
2022-12-18T12:32:33.558Z,70.10
2022-12-18T12:34:59.591Z,70.39
2022-12-18T12:37:25.214Z,70.19
2022-12-18T12:39:38.706Z,70.42
2022-12-18T12:42:07.772Z,70.17
2022-12-18T12:44:24.858Z,70.60
2022-12-18T12:46:40.676Z,70.52
2022-12-18T12:48:53.133Z,70.45
2022-12-18T12:51:01.780Z,70.87
2022-12-18T12:53:20.316Z,70.60
2022-12-18T12:55:31.400Z,70.61
2022-12-18T12:57:41.616Z,70.75
2022-12-18T13:00:00.958Z,70.62
2022-12-18T13:02:19.109Z,70.59
2022-12-18T13:04:37.856Z,70.52
2022-12-18T13:06:54.988Z,70.47
2022-12-18T13:09:06.501Z,70.74
2022-12-18T13:11:49.126Z,70.74
2022-12-18T13:14:01.492Z,70.71
2022-12-18T13:16:12.849Z,70.82
2022-12-18T13:18:27.128Z,70.51
2022-12-18T13:20:41.065Z,70.55
2022-12-18T13:22:52.756Z,70.63
2022-12-18T13:25:02.858Z,70.58
2022-12-18T13:27:58.594Z,70.56
2022-12-18T13:30:55.552Z,70.54
2022-12-18T13:36:36.308Z,70.50
2022-12-18T13:38:47.024Z,70.58
2022-12-18T13:41:01.352Z,70.55
2022-12-18T13:43:39.451Z,70.46
2022-12-18T13:46:20.421Z,70.39
2022-12-18T13:48:32.586Z,70.52
2022-12-18T13:50:43.929Z,70.26
2022-12-18T13:52:55.706Z,70.44
2022-12-18T13:55:08.389Z,70.33
2022-12-18T13:57:32.199Z,70.43
2022-12-18T13:59:42.852Z,70.32
2022-12-18T14:01:57.594Z,70.59
2022-12-18T14:04:22.310Z,70.39
2022-12-18T14:06:33.092Z,70.25
2022-12-18T14:08:46.095Z,70.54
2022-12-18T14:10:56.304Z,70.51
2022-12-18T14:13:11.599Z,70.45
2022-12-18T14:15:30.393Z,70.62
2022-12-18T14:17:42.048Z,70.67
2022-12-18T14:19:53.631Z,70.66
2022-12-18T14:22:03.329Z,70.70
2022-12-18T14:24:19.911Z,70.46
2022-12-18T14:26:31.781Z,70.87
2022-12-18T14:28:48.397Z,70.86
2022-12-18T14:30:58.901Z,70.87
2022-12-18T14:33:13.192Z,70.90
2022-12-18T14:35:24.389Z,71.09
2022-12-18T14:37:34.026Z,70.85
2022-12-18T14:39:54.604Z,71.09
2022-12-18T14:42:04.555Z,71.18
2022-12-18T14:44:17.260Z,71.16
2022-12-18T14:46:40.237Z,71.33
2022-12-18T14:48:52.604Z,71.48
2022-12-18T14:51:04.620Z,71.01
2022-12-18T14:53:22.658Z,71.36
2022-12-18T14:55:32.561Z,71.36
2022-12-18T14:57:44.762Z,71.23
2022-12-18T14:59:55.571Z,71.17
2022-12-18T15:02:13.186Z,71.39
2022-12-18T15:04:33.814Z,71.13
2022-12-18T15:06:44.263Z,71.40
2022-12-18T15:08:54.575Z,71.53
2022-12-18T15:11:07.741Z,71.35
2022-12-18T15:13:27.509Z,71.26
2022-12-18T15:15:53.951Z,71.41
2022-12-18T15:18:05.420Z,71.55
2022-12-18T15:20:16.123Z,71.50
2022-12-18T15:22:29.057Z,71.42
2022-12-18T15:24:39.156Z,71.67
2022-12-18T15:26:49.228Z,71.76
2022-12-18T15:28:59.947Z,71.66
2022-12-18T15:31:28.207Z,71.78
2022-12-18T15:33:39.582Z,71.61
2022-12-18T15:35:48.457Z,71.94
2022-12-18T15:37:58.091Z,71.87
2022-12-18T15:40:09.045Z,71.76
2022-12-18T15:42:36.112Z,71.79
2022-12-18T15:44:49.960Z,71.83
2022-12-18T15:46:59.943Z,72.11
2022-12-18T15:49:10.791Z,71.91
2022-12-18T15:51:23.141Z,71.94
2022-12-18T15:53:35.654Z,72.02
2022-12-18T15:56:02.326Z,72.18
2022-12-18T15:58:14.435Z,72.05
2022-12-18T16:00:25.678Z,72.15
2022-12-18T16:02:35.455Z,72.16
2022-12-18T16:04:47.110Z,72.47
2022-12-18T16:07:14.434Z,72.23
2022-12-18T16:09:26.339Z,72.45
2022-12-18T16:11:42.060Z,72.59
2022-12-18T16:13:52.059Z,72.53
2022-12-18T16:16:01.799Z,72.62
2022-12-18T16:18:11.662Z,72.69
2022-12-18T16:20:23.327Z,72.80
2022-12-18T16:22:33.698Z,72.83
2022-12-18T16:24:44.150Z,73.11
2022-12-18T16:26:54.816Z,73.18
2022-12-18T16:29:04.490Z,73.10
2022-12-18T16:31:14.970Z,73.33
2022-12-18T16:33:24.952Z,73.65
2022-12-18T16:35:35.136Z,73.66
2022-12-18T16:37:45.913Z,73.78
2022-12-18T16:39:55.917Z,74.08
2022-12-18T16:42:06.377Z,74.13
2022-12-18T16:44:16.554Z,74.15
2022-12-18T16:46:26.103Z,74.40
2022-12-18T16:48:38.575Z,74.31
2022-12-18T16:50:48.486Z,74.44
2022-12-18T16:52:58.404Z,74.68
2022-12-18T16:55:09.474Z,74.53
2022-12-18T16:57:21.523Z,74.83
2022-12-18T16:59:33.605Z,74.70
2022-12-18T17:01:44.767Z,74.90
2022-12-18T17:03:59.323Z,74.53
2022-12-18T17:06:10.612Z,74.79
2022-12-18T17:08:21.349Z,74.72
2022-12-18T17:10:31.286Z,74.83
2022-12-18T17:12:41.362Z,74.93
2022-12-18T17:14:51.300Z,74.84
2022-12-18T17:17:24.264Z,75.17
2022-12-18T17:19:32.049Z,74.99
2022-12-18T17:21:42.248Z,74.99
2022-12-18T17:23:52.337Z,75.24
2022-12-18T17:26:02.418Z,75.11
2022-12-18T17:28:12.438Z,75.27
2022-12-18T17:30:23.956Z,75.19
2022-12-18T17:32:33.890Z,75.37
2022-12-18T17:34:43.973Z,75.53
2022-12-18T17:36:54.133Z,75.64
2022-12-18T17:39:05.802Z,75.75
2022-12-18T17:41:15.829Z,75.76
2022-12-18T17:43:26.285Z,75.52
2022-12-18T17:45:36.789Z,75.72
2022-12-18T17:47:46.638Z,75.78
2022-12-18T17:49:56.433Z,75.99
2022-12-18T17:52:07.105Z,75.93
2022-12-18T17:54:17.251Z,75.99
2022-12-18T17:56:27.802Z,75.62
2022-12-18T17:58:38.930Z,75.79
2022-12-18T18:00:49.265Z,76.02
2022-12-18T18:02:59.342Z,76.15
2022-12-18T18:05:12.287Z,76.03
2022-12-18T18:07:23.830Z,75.96
2022-12-18T18:09:34.068Z,76.53
2022-12-18T18:12:00.979Z,76.20
2022-12-18T18:14:13.683Z,76.42
2022-12-18T18:16:23.247Z,76.20
2022-12-18T18:18:33.696Z,76.34
2022-12-18T18:20:45.050Z,76.12
2022-12-18T18:22:54.769Z,76.15
2022-12-18T18:25:05.121Z,76.07
2022-12-18T18:27:15.416Z,75.78
2022-12-18T18:29:27.881Z,75.70
2022-12-18T18:31:41.212Z,75.57
2022-12-18T18:33:51.651Z,75.18
2022-12-18T18:36:01.780Z,74.77
2022-12-18T18:38:11.502Z,74.59
2022-12-18T18:40:21.769Z,74.70
2022-12-18T18:42:32.009Z,74.55
2022-12-18T18:44:47.191Z,74.76
2022-12-18T18:46:59.723Z,74.72
2022-12-18T18:49:11.548Z,74.63
2022-12-18T18:51:22.342Z,74.43
2022-12-18T18:53:32.177Z,74.58
2022-12-18T18:55:41.744Z,74.51
2022-12-18T18:57:51.486Z,74.60
2022-12-18T19:00:01.496Z,74.55
2022-12-18T19:02:13.729Z,74.45
2022-12-18T19:04:23.572Z,74.45
2022-12-18T19:06:33.435Z,74.33
2022-12-18T19:08:44.284Z,74.40
2022-12-18T19:10:57.961Z,74.34
2022-12-18T19:13:23.302Z,74.41
2022-12-18T19:15:32.869Z,73.95
2022-12-18T19:17:42.632Z,73.89
2022-12-18T19:19:56.987Z,74.05
2022-12-18T19:22:06.875Z,73.64
2022-12-18T19:24:16.843Z,73.43
2022-12-18T19:26:28.483Z,73.81
2022-12-18T19:28:39.070Z,73.79
2022-12-18T19:30:49.028Z,73.66
2022-12-18T19:33:14.724Z,73.66
2022-12-18T19:35:33.223Z,73.84
2022-12-18T19:37:43.333Z,73.71
2022-12-18T19:39:53.113Z,73.64
2022-12-18T19:42:04.734Z,73.70
2022-12-18T19:44:15.684Z,73.68
2022-12-18T19:46:26.608Z,73.59
2022-12-18T19:48:37.126Z,73.52
2022-12-18T19:50:47.459Z,73.57
2022-12-18T19:52:57.607Z,73.45
2022-12-18T19:55:08.203Z,73.49
2022-12-18T19:57:18.360Z,73.43
2022-12-18T19:59:28.254Z,73.23
2022-12-18T20:01:38.104Z,72.78
2022-12-18T20:03:51.848Z,73.00
2022-12-18T20:06:12.648Z,73.10
2022-12-18T20:08:23.087Z,73.16
2022-12-18T20:10:33.693Z,72.95
2022-12-18T20:12:43.681Z,73.10
2022-12-18T20:14:53.658Z,73.07
2022-12-18T20:17:03.444Z,73.04
2022-12-18T20:19:14.966Z,73.03
2022-12-18T20:21:26.092Z,73.32
2022-12-18T20:23:35.905Z,73.04
2022-12-18T20:25:47.245Z,73.16
2022-12-18T20:27:58.571Z,72.96
2022-12-18T20:30:09.927Z,72.65
2022-12-18T20:32:19.916Z,72.59
2022-12-18T20:34:30.014Z,72.43
2022-12-18T20:36:41.058Z,72.62
2022-12-18T20:38:51.495Z,72.59
2022-12-18T20:41:08.680Z,72.55
2022-12-18T20:43:19.066Z,72.84
2022-12-18T20:45:29.882Z,72.91
2022-12-18T20:47:39.640Z,72.68
2022-12-18T20:49:49.702Z,72.73
2022-12-18T20:52:00.069Z,72.79
2022-12-18T20:54:11.954Z,72.77
2022-12-18T20:56:21.907Z,72.78
2022-12-18T20:58:31.728Z,72.62
2022-12-18T21:00:41.486Z,72.76
2022-12-18T21:02:51.454Z,72.90
2022-12-18T21:05:01.870Z,73.18
2022-12-18T21:07:11.619Z,73.48
2022-12-18T21:09:21.417Z,73.44
2022-12-18T21:11:50.555Z,73.35
2022-12-18T21:14:00.615Z,73.31
2022-12-18T21:16:11.069Z,73.16
2022-12-18T21:18:20.911Z,72.74
2022-12-18T21:20:30.639Z,72.62
2022-12-18T21:22:40.901Z,72.35
2022-12-18T21:24:50.697Z,72.39
2022-12-18T21:27:00.687Z,72.34
2022-12-18T21:29:13.484Z,71.87
2022-12-18T21:31:24.094Z,71.30
2022-12-18T21:33:33.926Z,71.34
2022-12-18T21:35:44.081Z,71.33
2022-12-18T21:37:53.973Z,70.88
2022-12-18T21:40:04.164Z,71.00
2022-12-18T21:42:32.125Z,71.00
2022-12-18T21:44:42.899Z,70.67
2022-12-18T21:46:59.814Z,70.73
2022-12-18T21:49:15.308Z,70.59
2022-12-18T21:51:25.250Z,70.79
2022-12-18T21:53:35.098Z,70.82
2022-12-18T21:55:45.126Z,70.16
2022-12-18T21:57:55.489Z,70.26
2022-12-18T22:00:05.843Z,70.17
2022-12-18T22:02:23.376Z,70.29
2022-12-18T22:04:33.401Z,70.27
2022-12-18T22:06:44.205Z,70.23
2022-12-18T22:08:54.411Z,69.91
2022-12-18T22:11:04.221Z,70.11
2022-12-18T22:13:14.328Z,70.24
2022-12-18T22:15:24.799Z,70.24
2022-12-18T22:17:34.937Z,70.28
2022-12-18T22:19:44.590Z,70.57
2022-12-18T22:21:55.556Z,70.76
2022-12-18T22:24:07.376Z,70.81
2022-12-18T22:26:17.500Z,70.95
2022-12-18T22:28:44.426Z,71.00
2022-12-18T22:30:56.357Z,71.09
2022-12-18T22:33:09.664Z,71.15
2022-12-18T22:35:19.545Z,71.23
2022-12-18T22:37:29.119Z,71.30
2022-12-18T22:39:40.412Z,71.51
2022-12-18T22:41:50.663Z,71.65
2022-12-18T22:44:00.398Z,71.62
2022-12-18T22:46:14.804Z,71.55
2022-12-18T22:48:24.311Z,71.79
2022-12-18T22:50:34.129Z,71.89
2022-12-18T22:52:44.320Z,71.87
2022-12-18T22:54:54.210Z,71.83
2022-12-18T22:57:04.214Z,71.63
2022-12-18T22:59:19.947Z,71.79
2022-12-18T23:01:31.167Z,71.91
2022-12-18T23:03:42.591Z,71.80
2022-12-18T23:05:52.558Z,72.06
2022-12-18T23:08:02.279Z,72.01
2022-12-18T23:10:13.376Z,71.94
2022-12-18T23:12:23.211Z,71.83
2022-12-18T23:14:33.607Z,71.93
2022-12-18T23:16:43.843Z,72.05
2022-12-18T23:18:59.369Z,72.29
2022-12-18T23:21:10.408Z,72.26
2022-12-18T23:23:22.808Z,71.97
2022-12-18T23:25:32.459Z,72.10
2022-12-18T23:27:42.260Z,72.35
2022-12-18T23:29:51.939Z,72.15
2022-12-18T23:32:02.594Z,72.29
2022-12-18T23:34:14.239Z,72.20
2022-12-18T23:36:24.609Z,72.32
2022-12-18T23:38:35.688Z,72.21
2022-12-18T23:40:46.697Z,72.18
2022-12-18T23:42:58.164Z,72.45
2022-12-18T23:45:17.383Z,72.51
2022-12-18T23:47:28.614Z,72.58
2022-12-18T23:49:38.554Z,72.73
2022-12-18T23:51:48.607Z,72.49
2022-12-18T23:54:00.638Z,72.46
2022-12-18T23:56:09.204Z,72.63
2022-12-18T23:58:22.879Z,72.83
